sensor_id;sensor_type;location;lat;lon;timestamp;P1;durP1;ratioP1;P2;durP2;ratioP2
17991;SDS011;9121;50.926;5.340;2023-06-26T00:00:04;8.80;;;6.07;;
17991;SDS011;9121;50.926;5.340;2023-06-26T00:02:32;10.38;;;6.97;;
17991;SDS011;9121;50.926;5.340;2023-06-26T00:04:59;8.15;;;6.15;;
17991;SDS011;9121;50.926;5.340;2023-06-26T00:07:28;9.65;;;6.40;;
17991;SDS011;9121;50.926;5.340;2023-06-26T00:09:55;9.13;;;6.40;;
17991;SDS011;9121;50.926;5.340;2023-06-26T00:12:23;9.30;;;6.32;;
17991;SDS011;9121;50.926;5.340;2023-06-26T00:14:52;8.55;;;6.22;;
17991;SDS011;9121;50.926;5.340;2023-06-26T00:17:19;9.13;;;6.35;;
17991;SDS011;9121;50.926;5.340;2023-06-26T00:19:46;9.52;;;6.30;;
17991;SDS011;9121;50.926;5.340;2023-06-26T00:22:13;15.07;;;6.22;;
17991;SDS011;9121;50.926;5.340;2023-06-26T00:24:41;8.13;;;6.10;;
17991;SDS011;9121;50.926;5.340;2023-06-26T00:27:10;9.80;;;6.13;;
17991;SDS011;9121;50.926;5.340;2023-06-26T00:29:37;8.00;;;6.15;;
17991;SDS011;9121;50.926;5.340;2023-06-26T00:32:06;7.68;;;6.30;;
17991;SDS011;9121;50.926;5.340;2023-06-26T00:34:33;8.90;;;6.50;;
17991;SDS011;9121;50.926;5.340;2023-06-26T00:37:01;11.07;;;6.50;;
17991;SDS011;9121;50.926;5.340;2023-06-26T00:39:29;8.55;;;5.90;;
17991;SDS011;9121;50.926;5.340;2023-06-26T00:41:56;10.13;;;5.72;;
17991;SDS011;9121;50.926;5.340;2023-06-26T00:44:22;9.35;;;6.32;;
17991;SDS011;9121;50.926;5.340;2023-06-26T00:46:49;7.47;;;5.75;;
17991;SDS011;9121;50.926;5.340;2023-06-26T00:49:18;8.73;;;6.30;;
17991;SDS011;9121;50.926;5.340;2023-06-26T00:51:46;9.80;;;6.38;;
17991;SDS011;9121;50.926;5.340;2023-06-26T00:54:13;9.30;;;6.65;;
17991;SDS011;9121;50.926;5.340;2023-06-26T00:56:45;10.02;;;6.53;;
17991;SDS011;9121;50.926;5.340;2023-06-26T00:59:13;8.00;;;5.82;;
17991;SDS011;9121;50.926;5.340;2023-06-26T01:01:40;8.48;;;6.28;;
17991;SDS011;9121;50.926;5.340;2023-06-26T01:04:07;12.40;;;6.10;;
17991;SDS011;9121;50.926;5.340;2023-06-26T01:06:44;8.90;;;6.22;;
17991;SDS011;9121;50.926;5.340;2023-06-26T01:09:15;10.77;;;5.53;;
17991;SDS011;9121;50.926;5.340;2023-06-26T01:11:43;10.60;;;5.97;;
17991;SDS011;9121;50.926;5.340;2023-06-26T01:14:10;8.00;;;6.32;;
17991;SDS011;9121;50.926;5.340;2023-06-26T01:16:38;10.93;;;6.15;;
17991;SDS011;9121;50.926;5.340;2023-06-26T01:19:07;10.10;;;6.53;;
17991;SDS011;9121;50.926;5.340;2023-06-26T01:21:40;10.48;;;6.28;;
17991;SDS011;9121;50.926;5.340;2023-06-26T01:24:15;7.93;;;5.90;;
17991;SDS011;9121;50.926;5.340;2023-06-26T01:26:47;12.05;;;5.78;;
17991;SDS011;9121;50.926;5.340;2023-06-26T01:29:16;10.40;;;5.53;;
17991;SDS011;9121;50.926;5.340;2023-06-26T01:31:46;7.53;;;5.80;;
17991;SDS011;9121;50.926;5.340;2023-06-26T01:34:14;7.82;;;5.70;;
17991;SDS011;9121;50.926;5.340;2023-06-26T01:36:43;8.18;;;5.13;;
17991;SDS011;9121;50.926;5.340;2023-06-26T01:39:12;8.77;;;5.90;;
17991;SDS011;9121;50.926;5.340;2023-06-26T01:41:41;7.63;;;5.95;;
17991;SDS011;9121;50.926;5.340;2023-06-26T01:44:14;14.02;;;7.07;;
17991;SDS011;9121;50.926;5.340;2023-06-26T01:46:54;7.60;;;6.15;;
17991;SDS011;9121;50.926;5.340;2023-06-26T01:49:29;7.57;;;6.07;;
17991;SDS011;9121;50.926;5.340;2023-06-26T01:52:06;8.70;;;5.95;;
17991;SDS011;9121;50.926;5.340;2023-06-26T01:54:42;10.20;;;6.38;;
17991;SDS011;9121;50.926;5.340;2023-06-26T01:57:15;11.82;;;6.50;;
17991;SDS011;9121;50.926;5.340;2023-06-26T01:59:46;11.05;;;6.20;;
17991;SDS011;9121;50.926;5.340;2023-06-26T02:02:14;9.15;;;6.82;;
17991;SDS011;9121;50.926;5.340;2023-06-26T02:04:41;8.85;;;7.15;;
17991;SDS011;9121;50.926;5.340;2023-06-26T02:07:08;12.32;;;6.80;;
17991;SDS011;9121;50.926;5.340;2023-06-26T02:09:35;11.00;;;6.60;;
17991;SDS011;9121;50.926;5.340;2023-06-26T02:12:02;11.98;;;7.05;;
17991;SDS011;9121;50.926;5.340;2023-06-26T02:14:30;9.98;;;5.97;;
17991;SDS011;9121;50.926;5.340;2023-06-26T02:16:58;8.52;;;6.13;;
17991;SDS011;9121;50.926;5.340;2023-06-26T02:19:26;8.63;;;6.45;;
17991;SDS011;9121;50.926;5.340;2023-06-26T02:21:53;9.52;;;5.72;;
17991;SDS011;9121;50.926;5.340;2023-06-26T02:24:20;10.93;;;5.60;;
17991;SDS011;9121;50.926;5.340;2023-06-26T02:26:47;13.93;;;6.35;;
17991;SDS011;9121;50.926;5.340;2023-06-26T02:29:15;10.27;;;5.85;;
17991;SDS011;9121;50.926;5.340;2023-06-26T02:31:42;7.75;;;5.45;;
17991;SDS011;9121;50.926;5.340;2023-06-26T02:34:10;10.30;;;5.45;;
17991;SDS011;9121;50.926;5.340;2023-06-26T02:36:38;10.40;;;5.60;;
17991;SDS011;9121;50.926;5.340;2023-06-26T02:39:04;7.43;;;5.10;;
17991;SDS011;9121;50.926;5.340;2023-06-26T02:41:31;7.78;;;4.95;;
17991;SDS011;9121;50.926;5.340;2023-06-26T02:43:58;11.90;;;5.68;;
17991;SDS011;9121;50.926;5.340;2023-06-26T02:46:25;9.00;;;5.03;;
17991;SDS011;9121;50.926;5.340;2023-06-26T02:48:52;10.80;;;4.85;;
17991;SDS011;9121;50.926;5.340;2023-06-26T02:51:21;8.30;;;5.00;;
17991;SDS011;9121;50.926;5.340;2023-06-26T02:53:48;9.45;;;5.40;;
17991;SDS011;9121;50.926;5.340;2023-06-26T02:56:14;9.00;;;5.00;;
17991;SDS011;9121;50.926;5.340;2023-06-26T02:58:41;9.82;;;5.03;;
17991;SDS011;9121;50.926;5.340;2023-06-26T03:01:08;8.20;;;4.95;;
17991;SDS011;9121;50.926;5.340;2023-06-26T03:03:35;8.55;;;4.85;;
17991;SDS011;9121;50.926;5.340;2023-06-26T03:06:05;8.75;;;5.18;;
17991;SDS011;9121;50.926;5.340;2023-06-26T03:08:36;8.73;;;4.93;;
17991;SDS011;9121;50.926;5.340;2023-06-26T03:11:03;8.20;;;4.65;;
17991;SDS011;9121;50.926;5.340;2023-06-26T03:13:31;5.72;;;4.32;;
17991;SDS011;9121;50.926;5.340;2023-06-26T03:16:00;9.57;;;4.90;;
17991;SDS011;9121;50.926;5.340;2023-06-26T03:18:27;6.88;;;4.35;;
17991;SDS011;9121;50.926;5.340;2023-06-26T03:20:55;7.90;;;4.90;;
17991;SDS011;9121;50.926;5.340;2023-06-26T03:23:22;11.38;;;4.85;;
17991;SDS011;9121;50.926;5.340;2023-06-26T03:25:51;11.30;;;4.57;;
17991;SDS011;9121;50.926;5.340;2023-06-26T03:28:19;6.65;;;4.30;;
17991;SDS011;9121;50.926;5.340;2023-06-26T03:30:46;7.82;;;4.60;;
17991;SDS011;9121;50.926;5.340;2023-06-26T03:33:13;7.43;;;4.32;;
17991;SDS011;9121;50.926;5.340;2023-06-26T03:35:40;7.20;;;4.30;;
17991;SDS011;9121;50.926;5.340;2023-06-26T03:38:07;7.85;;;4.85;;
17991;SDS011;9121;50.926;5.340;2023-06-26T03:40:34;8.57;;;4.57;;
17991;SDS011;9121;50.926;5.340;2023-06-26T03:43:02;7.75;;;4.82;;
17991;SDS011;9121;50.926;5.340;2023-06-26T03:45:29;7.40;;;4.28;;
17991;SDS011;9121;50.926;5.340;2023-06-26T03:47:56;8.50;;;4.50;;
17991;SDS011;9121;50.926;5.340;2023-06-26T03:50:23;6.95;;;4.70;;
17991;SDS011;9121;50.926;5.340;2023-06-26T03:52:50;9.35;;;3.92;;
17991;SDS011;9121;50.926;5.340;2023-06-26T03:55:19;8.07;;;4.82;;
17991;SDS011;9121;50.926;5.340;2023-06-26T03:57:48;8.13;;;4.38;;
17991;SDS011;9121;50.926;5.340;2023-06-26T04:00:17;10.30;;;4.40;;
17991;SDS011;9121;50.926;5.340;2023-06-26T04:02:44;8.45;;;4.13;;
17991;SDS011;9121;50.926;5.340;2023-06-26T04:05:11;7.65;;;4.03;;
17991;SDS011;9121;50.926;5.340;2023-06-26T04:07:38;7.43;;;4.00;;
17991;SDS011;9121;50.926;5.340;2023-06-26T04:10:05;7.28;;;4.22;;
17991;SDS011;9121;50.926;5.340;2023-06-26T04:12:33;12.48;;;4.72;;
17991;SDS011;9121;50.926;5.340;2023-06-26T04:15:00;11.82;;;4.57;;
17991;SDS011;9121;50.926;5.340;2023-06-26T04:17:29;7.60;;;4.10;;
17991;SDS011;9121;50.926;5.340;2023-06-26T04:19:56;6.63;;;3.90;;
17991;SDS011;9121;50.926;5.340;2023-06-26T04:22:23;8.65;;;4.32;;
17991;SDS011;9121;50.926;5.340;2023-06-26T04:24:50;11.98;;;4.22;;
17991;SDS011;9121;50.926;5.340;2023-06-26T04:27:17;8.82;;;4.60;;
17991;SDS011;9121;50.926;5.340;2023-06-26T04:29:44;7.53;;;4.80;;
17991;SDS011;9121;50.926;5.340;2023-06-26T04:32:11;14.20;;;4.68;;
17991;SDS011;9121;50.926;5.340;2023-06-26T04:34:40;10.52;;;4.50;;
17991;SDS011;9121;50.926;5.340;2023-06-26T04:37:09;15.80;;;4.80;;
17991;SDS011;9121;50.926;5.340;2023-06-26T04:39:36;9.60;;;4.07;;
17991;SDS011;9121;50.926;5.340;2023-06-26T04:42:03;8.98;;;4.63;;
17991;SDS011;9121;50.926;5.340;2023-06-26T04:44:32;11.80;;;5.32;;
17991;SDS011;9121;50.926;5.340;2023-06-26T04:46:59;7.30;;;4.10;;
17991;SDS011;9121;50.926;5.340;2023-06-26T04:49:26;9.32;;;4.75;;
17991;SDS011;9121;50.926;5.340;2023-06-26T04:51:56;10.27;;;5.35;;
17991;SDS011;9121;50.926;5.340;2023-06-26T04:54:25;13.20;;;4.75;;
17991;SDS011;9121;50.926;5.340;2023-06-26T04:56:53;12.13;;;4.88;;
17991;SDS011;9121;50.926;5.340;2023-06-26T04:59:20;9.98;;;5.25;;
17991;SDS011;9121;50.926;5.340;2023-06-26T05:01:47;10.30;;;4.75;;
17991;SDS011;9121;50.926;5.340;2023-06-26T05:04:14;14.73;;;5.07;;
17991;SDS011;9121;50.926;5.340;2023-06-26T05:06:41;10.43;;;4.90;;
17991;SDS011;9121;50.926;5.340;2023-06-26T05:09:10;9.75;;;4.72;;
17991;SDS011;9121;50.926;5.340;2023-06-26T05:11:37;12.80;;;5.00;;
17991;SDS011;9121;50.926;5.340;2023-06-26T05:14:04;10.63;;;4.50;;
17991;SDS011;9121;50.926;5.340;2023-06-26T05:16:32;15.93;;;5.30;;
17991;SDS011;9121;50.926;5.340;2023-06-26T05:19:00;7.47;;;4.63;;
17991;SDS011;9121;50.926;5.340;2023-06-26T05:21:27;11.27;;;5.22;;
17991;SDS011;9121;50.926;5.340;2023-06-26T05:23:56;13.02;;;4.82;;
17991;SDS011;9121;50.926;5.340;2023-06-26T05:26:26;15.18;;;4.82;;
17991;SDS011;9121;50.926;5.340;2023-06-26T05:28:54;12.82;;;5.20;;
17991;SDS011;9121;50.926;5.340;2023-06-26T05:31:21;17.45;;;6.15;;
17991;SDS011;9121;50.926;5.340;2023-06-26T05:33:49;11.95;;;4.70;;
17991;SDS011;9121;50.926;5.340;2023-06-26T05:36:18;16.50;;;4.85;;
17991;SDS011;9121;50.926;5.340;2023-06-26T05:38:46;16.50;;;4.68;;
17991;SDS011;9121;50.926;5.340;2023-06-26T05:41:15;17.95;;;5.18;;
17991;SDS011;9121;50.926;5.340;2023-06-26T05:43:44;11.70;;;4.68;;
17991;SDS011;9121;50.926;5.340;2023-06-26T05:46:11;15.88;;;4.28;;
17991;SDS011;9121;50.926;5.340;2023-06-26T05:48:38;16.77;;;5.00;;
17991;SDS011;9121;50.926;5.340;2023-06-26T05:51:06;14.25;;;4.65;;
17991;SDS011;9121;50.926;5.340;2023-06-26T05:53:33;16.25;;;4.60;;
17991;SDS011;9121;50.926;5.340;2023-06-26T05:56:01;18.65;;;5.43;;
17991;SDS011;9121;50.926;5.340;2023-06-26T05:58:28;20.17;;;4.40;;
17991;SDS011;9121;50.926;5.340;2023-06-26T06:00:57;13.75;;;5.05;;
17991;SDS011;9121;50.926;5.340;2023-06-26T06:03:24;27.88;;;5.00;;
17991;SDS011;9121;50.926;5.340;2023-06-26T06:05:51;19.80;;;5.18;;
17991;SDS011;9121;50.926;5.340;2023-06-26T06:08:18;18.55;;;4.70;;
17991;SDS011;9121;50.926;5.340;2023-06-26T06:10:45;19.15;;;4.57;;
17991;SDS011;9121;50.926;5.340;2023-06-26T06:13:12;13.43;;;4.45;;
17991;SDS011;9121;50.926;5.340;2023-06-26T06:15:39;21.98;;;5.35;;
17991;SDS011;9121;50.926;5.340;2023-06-26T06:18:07;17.92;;;4.40;;
17991;SDS011;9121;50.926;5.340;2023-06-26T06:20:34;14.88;;;4.38;;
17991;SDS011;9121;50.926;5.340;2023-06-26T06:23:01;15.38;;;3.83;;
17991;SDS011;9121;50.926;5.340;2023-06-26T06:25:29;14.15;;;4.35;;
17991;SDS011;9121;50.926;5.340;2023-06-26T06:27:56;18.75;;;4.32;;
17991;SDS011;9121;50.926;5.340;2023-06-26T06:30:22;16.30;;;4.40;;
17991;SDS011;9121;50.926;5.340;2023-06-26T06:32:49;19.27;;;4.57;;
17991;SDS011;9121;50.926;5.340;2023-06-26T06:35:19;17.85;;;4.35;;
17991;SDS011;9121;50.926;5.340;2023-06-26T06:37:46;16.25;;;4.20;;
17991;SDS011;9121;50.926;5.340;2023-06-26T06:40:14;18.40;;;4.25;;
17991;SDS011;9121;50.926;5.340;2023-06-26T06:42:41;19.67;;;4.05;;
17991;SDS011;9121;50.926;5.340;2023-06-26T06:45:09;20.33;;;5.00;;
17991;SDS011;9121;50.926;5.340;2023-06-26T06:47:36;13.48;;;4.15;;
17991;SDS011;9121;50.926;5.340;2023-06-26T06:50:03;15.88;;;4.25;;
17991;SDS011;9121;50.926;5.340;2023-06-26T06:52:36;13.88;;;4.15;;
17991;SDS011;9121;50.926;5.340;2023-06-26T06:55:03;12.65;;;3.30;;
17991;SDS011;9121;50.926;5.340;2023-06-26T06:57:31;14.65;;;4.10;;
17991;SDS011;9121;50.926;5.340;2023-06-26T07:00:01;9.25;;;3.35;;
17991;SDS011;9121;50.926;5.340;2023-06-26T07:02:29;15.20;;;3.70;;
17991;SDS011;9121;50.926;5.340;2023-06-26T07:04:56;11.80;;;3.75;;
17991;SDS011;9121;50.926;5.340;2023-06-26T07:07:23;17.40;;;4.15;;
17991;SDS011;9121;50.926;5.340;2023-06-26T07:09:57;10.93;;;3.63;;
17991;SDS011;9121;50.926;5.340;2023-06-26T07:12:24;16.25;;;3.45;;
17991;SDS011;9121;50.926;5.340;2023-06-26T07:14:51;11.73;;;4.32;;
17991;SDS011;9121;50.926;5.340;2023-06-26T07:17:19;21.42;;;4.35;;
17991;SDS011;9121;50.926;5.340;2023-06-26T07:19:46;14.63;;;3.85;;
17991;SDS011;9121;50.926;5.340;2023-06-26T07:22:13;12.90;;;3.85;;
17991;SDS011;9121;50.926;5.340;2023-06-26T07:24:40;12.20;;;3.47;;
17991;SDS011;9121;50.926;5.340;2023-06-26T07:27:08;19.50;;;4.50;;
17991;SDS011;9121;50.926;5.340;2023-06-26T07:29:35;8.77;;;2.97;;
17991;SDS011;9121;50.926;5.340;2023-06-26T07:32:02;17.63;;;4.32;;
17991;SDS011;9121;50.926;5.340;2023-06-26T07:34:30;14.48;;;3.85;;
17991;SDS011;9121;50.926;5.340;2023-06-26T07:36:57;13.23;;;3.42;;
17991;SDS011;9121;50.926;5.340;2023-06-26T07:39:24;14.70;;;3.55;;
17991;SDS011;9121;50.926;5.340;2023-06-26T07:41:51;11.85;;;3.78;;
17991;SDS011;9121;50.926;5.340;2023-06-26T07:44:19;13.07;;;4.00;;
17991;SDS011;9121;50.926;5.340;2023-06-26T07:46:46;25.60;;;5.68;;
17991;SDS011;9121;50.926;5.340;2023-06-26T07:49:13;16.73;;;3.83;;
17991;SDS011;9121;50.926;5.340;2023-06-26T07:51:40;12.88;;;4.00;;
17991;SDS011;9121;50.926;5.340;2023-06-26T07:54:07;17.23;;;3.70;;
17991;SDS011;9121;50.926;5.340;2023-06-26T07:56:35;16.42;;;3.85;;
17991;SDS011;9121;50.926;5.340;2023-06-26T07:59:20;12.32;;;3.40;;
17991;SDS011;9121;50.926;5.340;2023-06-26T08:01:48;29.70;;;5.00;;
17991;SDS011;9121;50.926;5.340;2023-06-26T08:04:15;13.48;;;3.28;;
17991;SDS011;9121;50.926;5.340;2023-06-26T08:06:42;13.75;;;3.75;;
17991;SDS011;9121;50.926;5.340;2023-06-26T08:09:09;10.52;;;3.30;;
17991;SDS011;9121;50.926;5.340;2023-06-26T08:11:37;21.60;;;4.00;;
17991;SDS011;9121;50.926;5.340;2023-06-26T08:14:04;9.75;;;3.50;;
17991;SDS011;9121;50.926;5.340;2023-06-26T08:16:33;22.70;;;3.95;;
17991;SDS011;9121;50.926;5.340;2023-06-26T08:19:00;16.98;;;3.58;;
17991;SDS011;9121;50.926;5.340;2023-06-26T08:21:27;14.55;;;3.15;;
17991;SDS011;9121;50.926;5.340;2023-06-26T08:23:54;11.60;;;3.58;;
17991;SDS011;9121;50.926;5.340;2023-06-26T08:26:21;13.05;;;3.15;;
17991;SDS011;9121;50.926;5.340;2023-06-26T08:28:48;29.85;;;4.97;;
17991;SDS011;9121;50.926;5.340;2023-06-26T08:31:15;124.22;;;12.73;;
17991;SDS011;9121;50.926;5.340;2023-06-26T08:33:44;14.82;;;3.38;;
17991;SDS011;9121;50.926;5.340;2023-06-26T08:36:11;14.20;;;4.40;;
17991;SDS011;9121;50.926;5.340;2023-06-26T08:38:38;13.27;;;3.80;;
17991;SDS011;9121;50.926;5.340;2023-06-26T08:41:06;10.20;;;2.78;;
17991;SDS011;9121;50.926;5.340;2023-06-26T08:43:33;21.50;;;4.10;;
17991;SDS011;9121;50.926;5.340;2023-06-26T08:46:00;10.60;;;3.15;;
17991;SDS011;9121;50.926;5.340;2023-06-26T08:48:29;10.35;;;3.40;;
17991;SDS011;9121;50.926;5.340;2023-06-26T08:51:01;15.38;;;3.25;;
17991;SDS011;9121;50.926;5.340;2023-06-26T08:53:33;31.00;;;5.43;;
17991;SDS011;9121;50.926;5.340;2023-06-26T08:56:07;9.52;;;3.35;;
17991;SDS011;9121;50.926;5.340;2023-06-26T08:58:34;15.43;;;3.67;;
17991;SDS011;9121;50.926;5.340;2023-06-26T09:01:02;12.95;;;3.28;;
17991;SDS011;9121;50.926;5.340;2023-06-26T09:03:31;15.68;;;3.50;;
17991;SDS011;9121;50.926;5.340;2023-06-26T09:05:58;11.68;;;3.78;;
17991;SDS011;9121;50.926;5.340;2023-06-26T09:08:26;18.88;;;3.83;;
17991;SDS011;9121;50.926;5.340;2023-06-26T09:10:53;7.38;;;2.60;;
17991;SDS011;9121;50.926;5.340;2023-06-26T09:13:21;9.98;;;3.30;;
17991;SDS011;9121;50.926;5.340;2023-06-26T09:15:48;10.80;;;3.70;;
17991;SDS011;9121;50.926;5.340;2023-06-26T09:18:16;11.38;;;3.40;;
17991;SDS011;9121;50.926;5.340;2023-06-26T09:20:44;10.50;;;2.92;;
17991;SDS011;9121;50.926;5.340;2023-06-26T09:23:11;8.52;;;2.83;;
17991;SDS011;9121;50.926;5.340;2023-06-26T09:25:40;6.72;;;2.55;;
17991;SDS011;9121;50.926;5.340;2023-06-26T09:28:08;12.18;;;3.10;;
17991;SDS011;9121;50.926;5.340;2023-06-26T09:30:35;12.23;;;3.25;;
17991;SDS011;9121;50.926;5.340;2023-06-26T09:33:12;11.98;;;2.95;;
17991;SDS011;9121;50.926;5.340;2023-06-26T09:35:40;12.75;;;2.45;;
17991;SDS011;9121;50.926;5.340;2023-06-26T09:38:07;68.00;;;7.53;;
17991;SDS011;9121;50.926;5.340;2023-06-26T09:40:34;19.90;;;3.75;;
17991;SDS011;9121;50.926;5.340;2023-06-26T09:43:05;8.23;;;2.88;;
17991;SDS011;9121;50.926;5.340;2023-06-26T09:45:32;9.02;;;2.08;;
17991;SDS011;9121;50.926;5.340;2023-06-26T09:48:01;13.13;;;2.75;;
17991;SDS011;9121;50.926;5.340;2023-06-26T09:50:29;17.05;;;4.05;;
17991;SDS011;9121;50.926;5.340;2023-06-26T09:52:59;10.27;;;2.25;;
17991;SDS011;9121;50.926;5.340;2023-06-26T09:55:34;11.13;;;2.47;;
17991;SDS011;9121;50.926;5.340;2023-06-26T09:58:01;10.63;;;2.60;;
17991;SDS011;9121;50.926;5.340;2023-06-26T10:00:31;6.18;;;2.15;;
17991;SDS011;9121;50.926;5.340;2023-06-26T10:02:58;7.63;;;2.38;;
17991;SDS011;9121;50.926;5.340;2023-06-26T10:05:25;8.57;;;2.38;;
17991;SDS011;9121;50.926;5.340;2023-06-26T10:07:52;5.63;;;2.05;;
17991;SDS011;9121;50.926;5.340;2023-06-26T10:10:19;8.32;;;2.60;;
17991;SDS011;9121;50.926;5.340;2023-06-26T10:12:49;6.65;;;2.20;;
17991;SDS011;9121;50.926;5.340;2023-06-26T10:15:20;8.48;;;2.22;;
17991;SDS011;9121;50.926;5.340;2023-06-26T10:17:50;16.77;;;1.90;;
17991;SDS011;9121;50.926;5.340;2023-06-26T10:20:22;5.50;;;1.90;;
17991;SDS011;9121;50.926;5.340;2023-06-26T10:22:51;10.55;;;2.40;;
17991;SDS011;9121;50.926;5.340;2023-06-26T10:25:19;7.32;;;1.80;;
17991;SDS011;9121;50.926;5.340;2023-06-26T10:27:48;5.47;;;1.88;;
17991;SDS011;9121;50.926;5.340;2023-06-26T10:30:20;8.63;;;1.90;;
17991;SDS011;9121;50.926;5.340;2023-06-26T10:32:53;2.78;;;1.67;;
17991;SDS011;9121;50.926;5.340;2023-06-26T10:35:21;10.80;;;1.92;;
17991;SDS011;9121;50.926;5.340;2023-06-26T10:37:48;11.65;;;2.30;;
17991;SDS011;9121;50.926;5.340;2023-06-26T10:40:20;6.80;;;2.30;;
17991;SDS011;9121;50.926;5.340;2023-06-26T10:42:48;7.90;;;2.08;;
17991;SDS011;9121;50.926;5.340;2023-06-26T10:45:15;7.35;;;1.92;;
17991;SDS011;9121;50.926;5.340;2023-06-26T10:47:47;6.00;;;1.95;;
17991;SDS011;9121;50.926;5.340;2023-06-26T10:50:20;9.20;;;1.80;;
17991;SDS011;9121;50.926;5.340;2023-06-26T10:53:11;5.13;;;1.50;;
17991;SDS011;9121;50.926;5.340;2023-06-26T10:55:47;5.22;;;1.75;;
17991;SDS011;9121;50.926;5.340;2023-06-26T10:58:31;12.93;;;1.98;;
17991;SDS011;9121;50.926;5.340;2023-06-26T11:01:19;17.10;;;3.03;;
17991;SDS011;9121;50.926;5.340;2023-06-26T11:03:49;13.32;;;2.13;;
17991;SDS011;9121;50.926;5.340;2023-06-26T11:06:29;9.68;;;2.25;;
17991;SDS011;9121;50.926;5.340;2023-06-26T11:08:59;55.15;;;5.22;;
17991;SDS011;9121;50.926;5.340;2023-06-26T11:14:27;7.78;;;1.48;;
17991;SDS011;9121;50.926;5.340;2023-06-26T11:16:57;6.53;;;1.63;;
17991;SDS011;9121;50.926;5.340;2023-06-26T11:19:25;10.93;;;1.83;;
17991;SDS011;9121;50.926;5.340;2023-06-26T11:22:03;11.32;;;2.13;;
17991;SDS011;9121;50.926;5.340;2023-06-26T11:24:30;7.20;;;1.70;;
17991;SDS011;9121;50.926;5.340;2023-06-26T11:27:01;31.02;;;3.05;;
17991;SDS011;9121;50.926;5.340;2023-06-26T11:29:31;9.80;;;2.60;;
17991;SDS011;9121;50.926;5.340;2023-06-26T11:31:59;21.02;;;3.50;;
17991;SDS011;9121;50.926;5.340;2023-06-26T11:34:31;6.90;;;2.13;;
17991;SDS011;9121;50.926;5.340;2023-06-26T11:36:58;20.83;;;3.83;;
17991;SDS011;9121;50.926;5.340;2023-06-26T11:39:30;4.40;;;1.58;;
17991;SDS011;9121;50.926;5.340;2023-06-26T11:41:57;4.93;;;1.75;;
17991;SDS011;9121;50.926;5.340;2023-06-26T11:44:28;10.25;;;1.83;;
17991;SDS011;9121;50.926;5.340;2023-06-26T11:46:56;5.80;;;1.60;;
17991;SDS011;9121;50.926;5.340;2023-06-26T11:49:23;4.38;;;1.65;;
17991;SDS011;9121;50.926;5.340;2023-06-26T11:51:52;5.70;;;1.90;;
17991;SDS011;9121;50.926;5.340;2023-06-26T11:54:26;43.55;;;6.18;;
17991;SDS011;9121;50.926;5.340;2023-06-26T11:56:58;5.95;;;1.80;;
17991;SDS011;9121;50.926;5.340;2023-06-26T11:59:36;8.35;;;1.85;;
17991;SDS011;9121;50.926;5.340;2023-06-26T12:02:05;7.05;;;1.70;;
17991;SDS011;9121;50.926;5.340;2023-06-26T12:04:33;14.57;;;2.90;;
17991;SDS011;9121;50.926;5.340;2023-06-26T12:07:01;4.80;;;2.20;;
17991;SDS011;9121;50.926;5.340;2023-06-26T12:09:32;11.88;;;2.00;;
17991;SDS011;9121;50.926;5.340;2023-06-26T12:12:01;6.65;;;1.63;;
17991;SDS011;9121;50.926;5.340;2023-06-26T12:14:28;4.43;;;1.88;;
17991;SDS011;9121;50.926;5.340;2023-06-26T12:17:03;15.43;;;2.60;;
17991;SDS011;9121;50.926;5.340;2023-06-26T12:19:31;2.38;;;1.30;;
17991;SDS011;9121;50.926;5.340;2023-06-26T12:21:58;8.65;;;2.28;;
17991;SDS011;9121;50.926;5.340;2023-06-26T12:24:25;5.20;;;1.92;;
17991;SDS011;9121;50.926;5.340;2023-06-26T12:26:52;5.82;;;1.73;;
17991;SDS011;9121;50.926;5.340;2023-06-26T12:29:30;47.30;;;5.85;;
17991;SDS011;9121;50.926;5.340;2023-06-26T12:31:59;25.98;;;4.47;;
17991;SDS011;9121;50.926;5.340;2023-06-26T12:34:27;8.48;;;2.28;;
17991;SDS011;9121;50.926;5.340;2023-06-26T12:37:01;6.07;;;2.67;;
17991;SDS011;9121;50.926;5.340;2023-06-26T12:39:29;7.88;;;1.88;;
17991;SDS011;9121;50.926;5.340;2023-06-26T12:42:13;5.00;;;1.48;;
17991;SDS011;9121;50.926;5.340;2023-06-26T12:44:41;8.32;;;2.40;;
17991;SDS011;9121;50.926;5.340;2023-06-26T12:47:08;15.10;;;2.92;;
17991;SDS011;9121;50.926;5.340;2023-06-26T12:49:38;106.68;;;10.93;;
17991;SDS011;9121;50.926;5.340;2023-06-26T12:52:07;92.18;;;9.30;;
17991;SDS011;9121;50.926;5.340;2023-06-26T12:54:35;49.95;;;5.43;;
17991;SDS011;9121;50.926;5.340;2023-06-26T12:57:05;9.95;;;2.22;;
17991;SDS011;9121;50.926;5.340;2023-06-26T12:59:33;3.30;;;1.70;;
17991;SDS011;9121;50.926;5.340;2023-06-26T13:02:02;8.32;;;1.90;;
17991;SDS011;9121;50.926;5.340;2023-06-26T13:04:30;3.95;;;1.63;;
17991;SDS011;9121;50.926;5.340;2023-06-26T13:06:57;4.90;;;1.73;;
17991;SDS011;9121;50.926;5.340;2023-06-26T13:09:24;3.50;;;1.80;;
17991;SDS011;9121;50.926;5.340;2023-06-26T13:11:51;6.93;;;1.88;;
17991;SDS011;9121;50.926;5.340;2023-06-26T13:14:18;5.93;;;1.73;;
17991;SDS011;9121;50.926;5.340;2023-06-26T13:16:46;9.27;;;2.55;;
17991;SDS011;9121;50.926;5.340;2023-06-26T13:19:15;16.92;;;2.95;;
17991;SDS011;9121;50.926;5.340;2023-06-26T13:21:42;7.68;;;1.98;;
17991;SDS011;9121;50.926;5.340;2023-06-26T13:24:09;4.35;;;1.60;;
17991;SDS011;9121;50.926;5.340;2023-06-26T13:26:36;12.20;;;2.15;;
17991;SDS011;9121;50.926;5.340;2023-06-26T13:29:03;16.88;;;2.40;;
17991;SDS011;9121;50.926;5.340;2023-06-26T13:31:30;7.75;;;1.88;;
17991;SDS011;9121;50.926;5.340;2023-06-26T13:33:58;8.18;;;1.83;;
17991;SDS011;9121;50.926;5.340;2023-06-26T13:36:27;9.82;;;2.15;;
17991;SDS011;9121;50.926;5.340;2023-06-26T13:38:54;8.35;;;1.92;;
17991;SDS011;9121;50.926;5.340;2023-06-26T13:41:21;8.07;;;2.50;;
17991;SDS011;9121;50.926;5.340;2023-06-26T13:43:48;10.77;;;2.15;;
17991;SDS011;9121;50.926;5.340;2023-06-26T13:46:15;13.90;;;2.03;;
17991;SDS011;9121;50.926;5.340;2023-06-26T13:48:43;5.68;;;2.15;;
17991;SDS011;9121;50.926;5.340;2023-06-26T13:51:10;7.35;;;2.28;;
17991;SDS011;9121;50.926;5.340;2023-06-26T13:53:38;5.05;;;1.63;;
17991;SDS011;9121;50.926;5.340;2023-06-26T13:56:05;7.55;;;1.60;;
17991;SDS011;9121;50.926;5.340;2023-06-26T13:58:34;3.78;;;1.90;;
17991;SDS011;9121;50.926;5.340;2023-06-26T14:01:07;33.65;;;4.35;;
17991;SDS011;9121;50.926;5.340;2023-06-26T14:03:34;110.65;;;12.00;;
17991;SDS011;9121;50.926;5.340;2023-06-26T14:06:00;6.30;;;1.77;;
17991;SDS011;9121;50.926;5.340;2023-06-26T14:08:27;4.50;;;1.30;;
17991;SDS011;9121;50.926;5.340;2023-06-26T14:10:56;9.40;;;2.00;;
17991;SDS011;9121;50.926;5.340;2023-06-26T14:13:23;4.25;;;1.73;;
17991;SDS011;9121;50.926;5.340;2023-06-26T14:15:50;3.70;;;1.80;;
17991;SDS011;9121;50.926;5.340;2023-06-26T14:18:17;5.38;;;1.95;;
17991;SDS011;9121;50.926;5.340;2023-06-26T14:20:46;9.75;;;2.10;;
17991;SDS011;9121;50.926;5.340;2023-06-26T14:23:13;7.32;;;2.00;;
17991;SDS011;9121;50.926;5.340;2023-06-26T14:25:40;4.65;;;1.77;;
17991;SDS011;9121;50.926;5.340;2023-06-26T14:28:08;6.20;;;1.73;;
17991;SDS011;9121;50.926;5.340;2023-06-26T14:30:35;6.43;;;1.65;;
17991;SDS011;9121;50.926;5.340;2023-06-26T14:33:02;6.25;;;1.70;;
17991;SDS011;9121;50.926;5.340;2023-06-26T14:35:29;4.72;;;1.75;;
17991;SDS011;9121;50.926;5.340;2023-06-26T14:37:56;5.38;;;1.42;;
17991;SDS011;9121;50.926;5.340;2023-06-26T14:40:23;7.70;;;1.85;;
17991;SDS011;9121;50.926;5.340;2023-06-26T14:42:50;4.80;;;1.52;;
17991;SDS011;9121;50.926;5.340;2023-06-26T14:45:19;6.32;;;1.70;;
17991;SDS011;9121;50.926;5.340;2023-06-26T14:47:46;4.07;;;1.70;;
17991;SDS011;9121;50.926;5.340;2023-06-26T14:50:13;8.32;;;1.95;;
17991;SDS011;9121;50.926;5.340;2023-06-26T14:52:40;7.72;;;2.20;;
17991;SDS011;9121;50.926;5.340;2023-06-26T14:55:07;8.15;;;1.67;;
17991;SDS011;9121;50.926;5.340;2023-06-26T14:57:35;5.10;;;1.73;;
17991;SDS011;9121;50.926;5.340;2023-06-26T15:00:02;3.10;;;1.60;;
17991;SDS011;9121;50.926;5.340;2023-06-26T15:02:32;6.57;;;1.90;;
17991;SDS011;9121;50.926;5.340;2023-06-26T15:04:59;6.63;;;1.80;;